createdAt,value
2022-11-14T00:00:43.316Z,5.50
2022-11-14T00:03:19.857Z,5.30
2022-11-14T00:05:47.434Z,5.20
2022-11-14T00:08:27.352Z,5.30
2022-11-14T00:11:00.822Z,5.30
2022-11-14T00:15:54.628Z,5.20
2022-11-14T00:18:27.602Z,5.20
2022-11-14T00:20:54.678Z,5.20
2022-11-14T00:23:21.875Z,5.20
2022-11-14T00:25:55.211Z,5.20
2022-11-14T00:28:22.404Z,5.20
2022-11-14T00:31:01.326Z,5.20
2022-11-14T00:33:40.484Z,5.30
2022-11-14T00:36:16.603Z,5.30
2022-11-14T00:38:43.317Z,5.20
2022-11-14T00:41:10.476Z,5.10
2022-11-14T00:43:37.230Z,5.10
2022-11-14T00:46:03.943Z,5.10
2022-11-14T00:48:30.973Z,4.80
2022-11-14T00:51:04.535Z,4.80
2022-11-14T00:53:43.577Z,4.80
2022-11-14T00:56:19.983Z,4.80
2022-11-14T00:58:46.722Z,4.80
2022-11-14T01:01:13.534Z,4.90
2022-11-14T01:03:53.361Z,4.90
2022-11-14T01:06:20.694Z,5.00
2022-11-14T01:08:50.022Z,4.90
2022-11-14T01:11:22.013Z,4.80
2022-11-14T01:13:57.834Z,4.70
2022-11-14T01:16:36.523Z,4.70
2022-11-14T01:19:12.788Z,4.60
2022-11-14T01:21:51.967Z,4.70
2022-11-14T01:24:28.238Z,4.70
2022-11-14T01:26:56.325Z,4.70
2022-11-14T01:29:23.729Z,4.60
2022-11-14T01:31:59.306Z,4.70
2022-11-14T01:37:03.169Z,4.70
2022-11-14T01:39:39.388Z,4.70
2022-11-14T01:42:27.646Z,4.80
2022-11-14T01:47:34.061Z,4.80
2022-11-14T01:50:04.536Z,4.70
2022-11-14T01:52:37.175Z,4.80
2022-11-14T01:55:07.897Z,4.70
2022-11-14T01:57:46.953Z,4.70
2022-11-14T02:00:20.273Z,4.60
2022-11-14T02:08:15.631Z,4.70
2022-11-14T02:10:52.092Z,4.70
2022-11-14T02:13:18.871Z,4.70
2022-11-14T02:15:45.574Z,4.70
2022-11-14T02:18:12.446Z,4.70
2022-11-14T02:20:52.611Z,4.70
2022-11-14T02:23:39.498Z,4.50
2022-11-14T02:26:20.561Z,4.60
2022-11-14T02:28:48.019Z,4.60
2022-11-14T02:31:16.336Z,4.50
2022-11-14T02:33:43.605Z,4.50
2022-11-14T02:36:10.818Z,4.60
2022-11-14T02:38:37.548Z,4.50
2022-11-14T02:41:04.414Z,4.70
2022-11-14T02:43:31.083Z,4.50
2022-11-14T02:51:02.849Z,4.40
2022-11-14T02:53:38.755Z,4.50
2022-11-14T02:56:05.727Z,4.50
2022-11-14T02:58:32.592Z,4.40
2022-11-14T03:03:46.600Z,4.30
2022-11-14T03:06:13.310Z,4.40
2022-11-14T03:08:39.974Z,4.40
2022-11-14T03:11:08.900Z,4.30
2022-11-14T03:13:36.087Z,4.40
2022-11-14T03:16:10.906Z,4.40
2022-11-14T03:18:46.499Z,4.50
2022-11-14T03:21:24.395Z,4.60
2022-11-14T03:24:03.509Z,4.60
2022-11-14T03:26:40.109Z,4.70
2022-11-14T03:29:19.417Z,4.80
2022-11-14T03:31:46.204Z,4.80
2022-11-14T03:36:40.289Z,4.80
2022-11-14T03:39:07.432Z,4.80
2022-11-14T03:41:34.173Z,4.80
2022-11-14T03:44:00.857Z,4.70
2022-11-14T03:46:27.505Z,4.60
2022-11-14T03:48:54.260Z,4.60
2022-11-14T03:51:21.184Z,4.50
2022-11-14T03:56:28.888Z,4.40
2022-11-14T03:58:55.588Z,4.40
2022-11-14T04:01:34.578Z,4.40
2022-11-14T04:04:01.294Z,4.40
2022-11-14T04:09:01.783Z,4.50
2022-11-14T04:11:29.016Z,4.40
2022-11-14T04:18:50.052Z,4.40
2022-11-14T04:21:16.740Z,4.40
2022-11-14T04:23:43.445Z,4.40
2022-11-14T04:26:10.719Z,4.40
2022-11-14T04:31:04.712Z,4.30
2022-11-14T04:33:38.021Z,4.30
2022-11-14T04:36:04.946Z,4.40
2022-11-14T04:38:32.117Z,4.40
2022-11-14T04:40:59.096Z,4.30
2022-11-14T04:43:32.416Z,4.30
2022-11-14T04:46:11.374Z,4.30
2022-11-14T04:48:38.113Z,4.20
2022-11-14T04:51:04.913Z,4.30
2022-11-14T04:53:41.250Z,4.30
2022-11-14T04:56:16.975Z,4.40
2022-11-14T05:01:13.304Z,4.60
2022-11-14T05:03:40.047Z,4.50
2022-11-14T05:06:06.943Z,4.40
2022-11-14T05:08:37.196Z,4.30
2022-11-14T05:11:04.174Z,4.30
2022-11-14T05:13:31.047Z,4.40
2022-11-14T05:16:01.229Z,4.40
2022-11-14T05:18:28.250Z,4.50
2022-11-14T05:20:59.007Z,4.40
2022-11-14T05:26:12.210Z,4.40
2022-11-14T05:28:42.048Z,4.50
2022-11-14T05:31:20.157Z,4.50
2022-11-14T05:33:48.110Z,4.50
2022-11-14T05:36:16.479Z,4.50
2022-11-14T05:38:43.491Z,4.50
2022-11-14T05:41:20.195Z,4.50
2022-11-14T05:43:47.215Z,4.60
2022-11-14T05:46:19.671Z,4.40
2022-11-14T05:51:13.790Z,4.30
2022-11-14T05:53:49.932Z,4.20
2022-11-14T05:58:52.804Z,4.30
2022-11-14T06:01:20.149Z,4.20
2022-11-14T06:03:48.312Z,4.20
2022-11-14T06:06:24.004Z,4.20
2022-11-14T06:08:51.174Z,4.10
2022-11-14T06:11:19.910Z,4.00
2022-11-14T06:13:47.005Z,4.00
2022-11-14T06:16:17.268Z,4.00
2022-11-14T06:18:44.611Z,4.10
2022-11-14T06:21:26.826Z,4.00
2022-11-14T06:23:53.690Z,4.00
2022-11-14T06:26:39.215Z,4.00
2022-11-14T06:29:07.593Z,4.00
2022-11-14T06:34:01.453Z,4.00
2022-11-14T06:36:29.706Z,4.00
2022-11-14T06:38:56.396Z,3.90
2022-11-14T06:41:35.925Z,4.00
2022-11-14T06:44:29.347Z,3.90
2022-11-14T06:47:03.380Z,3.80
2022-11-14T06:49:30.038Z,3.90
2022-11-14T06:52:06.021Z,3.90
2022-11-14T06:54:41.636Z,3.90
2022-11-14T06:59:45.159Z,4.10
2022-11-14T07:02:16.467Z,4.00
2022-11-14T07:04:47.303Z,4.00
2022-11-14T07:12:21.081Z,4.10
2022-11-14T07:14:47.798Z,4.20
2022-11-14T07:17:15.042Z,4.00
2022-11-14T07:19:41.727Z,4.00
2022-11-14T07:22:08.410Z,4.00
2022-11-14T07:27:02.887Z,3.80
2022-11-14T07:31:56.797Z,3.80
2022-11-14T07:34:30.125Z,3.80
2022-11-14T07:39:23.942Z,4.00
2022-11-14T07:41:51.140Z,4.30
2022-11-14T07:44:17.892Z,4.60
2022-11-14T07:46:45.146Z,5.30
2022-11-14T07:49:12.400Z,6.10
2022-11-14T07:51:51.291Z,6.90
2022-11-14T07:54:18.519Z,6.90
2022-11-14T07:56:48.071Z,8.10
2022-11-14T07:59:15.315Z,8.30
2022-11-14T08:01:41.998Z,8.80
2022-11-14T08:04:08.728Z,9.50
2022-11-14T08:06:45.091Z,9.50
2022-11-14T08:09:24.368Z,10.10
2022-11-14T08:12:00.705Z,10.30
2022-11-14T08:14:37.287Z,10.50
2022-11-14T08:17:04.017Z,10.60
2022-11-14T08:19:30.751Z,11.10
2022-11-14T08:22:10.126Z,11.70
2022-11-14T08:24:48.937Z,12.30
2022-11-14T08:27:15.661Z,12.60
2022-11-14T08:29:42.360Z,12.90
2022-11-14T08:32:21.896Z,13.00
2022-11-14T08:34:48.635Z,12.60
2022-11-14T08:37:15.500Z,12.40
2022-11-14T08:39:42.241Z,12.00
2022-11-14T08:42:21.680Z,10.70
2022-11-14T08:44:57.815Z,11.10
2022-11-14T08:47:37.261Z,11.00
2022-11-14T08:50:04.460Z,9.70
2022-11-14T08:52:31.143Z,9.60
2022-11-14T08:55:10.549Z,8.80
2022-11-14T08:57:37.222Z,8.30
2022-11-14T09:00:14.465Z,9.30
2022-11-14T09:02:41.729Z,9.50
2022-11-14T09:05:08.969Z,11.10
2022-11-14T09:07:35.860Z,11.10
2022-11-14T09:10:02.685Z,12.20
2022-11-14T09:12:29.942Z,13.00
2022-11-14T09:14:56.627Z,13.10
2022-11-14T09:17:26.855Z,13.10
2022-11-14T09:20:02.705Z,12.70
2022-11-14T09:22:31.019Z,13.40
2022-11-14T09:24:57.708Z,14.10
2022-11-14T09:27:26.907Z,15.20
2022-11-14T09:29:53.580Z,15.70
2022-11-14T09:32:20.287Z,16.00
2022-11-14T09:34:48.084Z,15.90
2022-11-14T09:37:24.268Z,15.70
2022-11-14T09:39:50.971Z,16.50
2022-11-14T09:42:48.585Z,17.20
2022-11-14T09:45:25.629Z,16.70
2022-11-14T09:48:20.319Z,16.80
2022-11-14T09:51:21.446Z,17.00
2022-11-14T09:53:53.006Z,17.20
2022-11-14T09:56:35.176Z,17.50
2022-11-14T09:59:14.763Z,18.20
2022-11-14T10:02:00.344Z,19.80
2022-11-14T10:04:35.792Z,20.60
2022-11-14T10:07:36.001Z,20.60
2022-11-14T10:10:28.983Z,19.50
2022-11-14T10:13:05.103Z,20.70
2022-11-14T10:15:49.437Z,21.90
2022-11-14T10:18:16.106Z,22.60
2022-11-14T10:21:02.681Z,23.60
2022-11-14T10:26:30.121Z,22.10
2022-11-14T10:29:04.695Z,21.70
2022-11-14T10:32:01.282Z,22.40
2022-11-14T10:34:51.573Z,21.60
2022-11-14T10:37:41.856Z,21.70
2022-11-14T10:40:39.877Z,22.30
2022-11-14T10:43:32.428Z,22.60
2022-11-14T10:46:31.720Z,21.20
2022-11-14T10:49:00.455Z,21.80
2022-11-14T10:51:41.608Z,22.50
2022-11-14T10:54:14.300Z,22.50
2022-11-14T10:56:48.470Z,22.20
2022-11-14T10:59:19.143Z,22.60
2022-11-14T11:04:47.828Z,20.20
2022-11-14T11:07:44.556Z,17.90
2022-11-14T11:10:40.703Z,16.60
2022-11-14T11:13:13.069Z,16.10
2022-11-14T11:15:52.419Z,16.30
2022-11-14T11:18:28.116Z,16.70
2022-11-14T11:21:02.410Z,15.90
2022-11-14T11:23:36.218Z,15.80
2022-11-14T11:26:19.750Z,15.40
2022-11-14T11:29:06.928Z,16.20
2022-11-14T11:31:56.409Z,16.40
2022-11-14T11:34:28.223Z,16.20
2022-11-14T11:40:19.352Z,15.10
2022-11-14T11:46:04.725Z,15.40
2022-11-14T11:48:47.589Z,14.50
2022-11-14T11:51:25.661Z,13.80
2022-11-14T11:54:10.783Z,13.70
2022-11-14T11:56:38.809Z,13.40
2022-11-14T11:59:42.495Z,13.60
2022-11-14T12:02:31.880Z,13.90
2022-11-14T12:05:00.712Z,13.40
2022-11-14T12:07:53.224Z,13.80
2022-11-14T12:10:37.219Z,13.70
2022-11-14T12:13:15.970Z,14.30
2022-11-14T12:16:08.809Z,14.60
2022-11-14T12:18:57.567Z,13.90
2022-11-14T12:21:58.437Z,13.40
2022-11-14T12:24:46.824Z,13.00
2022-11-14T12:27:24.623Z,13.10
2022-11-14T12:30:09.842Z,12.60
2022-11-14T12:33:11.809Z,12.40
2022-11-14T12:36:00.931Z,12.90
2022-11-14T12:38:34.810Z,13.20
2022-11-14T12:41:02.551Z,13.10
2022-11-14T12:43:45.442Z,13.20
2022-11-14T12:46:18.448Z,13.10
2022-11-14T12:48:46.154Z,12.60
2022-11-14T12:51:25.344Z,12.10
2022-11-14T12:53:57.832Z,12.20
2022-11-14T12:56:30.681Z,12.40
2022-11-14T12:59:28.320Z,12.40
2022-11-14T13:02:16.817Z,12.40
2022-11-14T13:05:00.202Z,12.30
2022-11-14T13:07:35.854Z,12.00
2022-11-14T13:10:27.845Z,12.00
2022-11-14T13:13:33.841Z,12.30
2022-11-14T13:16:21.441Z,12.10
2022-11-14T13:19:23.232Z,12.00
2022-11-14T13:22:15.097Z,11.90
2022-11-14T13:25:00.908Z,11.80
2022-11-14T13:28:06.037Z,12.10
2022-11-14T13:31:04.399Z,12.30
2022-11-14T13:33:44.247Z,12.70
2022-11-14T13:36:51.315Z,12.90
2022-11-14T13:39:23.739Z,12.50
2022-11-14T13:42:19.165Z,12.50
2022-11-14T13:44:54.804Z,12.50
2022-11-14T13:47:27.893Z,12.40
2022-11-14T13:50:00.863Z,12.50
2022-11-14T13:52:45.605Z,12.40
2022-11-14T13:55:41.329Z,12.50
2022-11-14T13:58:33.632Z,12.40
2022-11-14T14:01:28.983Z,12.30
2022-11-14T14:04:07.763Z,12.20
2022-11-14T14:06:56.696Z,12.30
2022-11-14T14:09:47.618Z,12.40
2022-11-14T14:12:44.742Z,12.40
2022-11-14T14:15:23.168Z,12.50
2022-11-14T14:18:20.138Z,12.60
2022-11-14T14:20:55.426Z,12.40
2022-11-14T14:23:43.243Z,12.40
2022-11-14T14:26:28.773Z,12.50
2022-11-14T14:29:11.418Z,12.50
2022-11-14T14:31:40.671Z,12.20
2022-11-14T14:34:28.558Z,12.00
2022-11-14T14:36:57.633Z,12.00
2022-11-14T14:39:26.971Z,11.70
2022-11-14T14:42:11.176Z,11.40
2022-11-14T14:44:40.040Z,11.30
2022-11-14T14:47:24.904Z,11.30
2022-11-14T14:52:37.764Z,11.20
2022-11-14T14:55:06.938Z,11.40
2022-11-14T14:57:40.020Z,11.20
2022-11-14T15:00:29.629Z,11.10
2022-11-14T15:02:56.895Z,11.00
2022-11-14T15:05:38.248Z,11.20
2022-11-14T15:08:17.588Z,11.30
2022-11-14T15:10:45.045Z,11.10
2022-11-14T15:13:15.715Z,11.10
2022-11-14T15:15:42.657Z,11.00
2022-11-14T15:18:39.678Z,11.00
2022-11-14T15:21:20.143Z,10.90
2022-11-14T15:26:17.048Z,10.70
2022-11-14T15:28:44.899Z,10.60
2022-11-14T15:31:24.177Z,10.70
2022-11-14T15:34:23.357Z,10.60
2022-11-14T15:37:08.587Z,10.50
2022-11-14T15:42:12.933Z,10.50
2022-11-14T15:44:42.254Z,10.60
2022-11-14T15:47:28.733Z,10.60
2022-11-14T15:50:03.823Z,10.60
2022-11-14T15:52:56.391Z,10.50
2022-11-14T15:55:24.221Z,10.40
2022-11-14T15:58:00.924Z,10.40
2022-11-14T16:00:44.485Z,10.30
2022-11-14T16:03:22.423Z,10.30
2022-11-14T16:05:55.806Z,10.30
2022-11-14T16:08:22.597Z,10.20
2022-11-14T16:13:25.594Z,10.20
2022-11-14T16:16:01.610Z,10.10
2022-11-14T16:18:37.238Z,10.00
2022-11-14T16:21:04.061Z,9.90
2022-11-14T16:23:31.073Z,9.90
2022-11-14T16:25:58.117Z,9.80
2022-11-14T16:28:24.831Z,9.70
2022-11-14T16:30:55.488Z,9.70
2022-11-14T16:33:22.227Z,9.70
2022-11-14T16:38:16.262Z,9.60
2022-11-14T16:40:46.049Z,9.60
2022-11-14T16:43:14.565Z,9.60
2022-11-14T16:48:08.666Z,9.30
2022-11-14T16:50:37.553Z,9.40
2022-11-14T16:53:04.368Z,9.40
2022-11-14T16:57:58.208Z,9.10
2022-11-14T17:00:24.930Z,9.10
2022-11-14T17:02:51.697Z,9.10
2022-11-14T17:05:18.478Z,9.10
2022-11-14T17:10:12.672Z,9.00
2022-11-14T17:15:07.014Z,9.10
2022-11-14T17:17:33.808Z,9.00
2022-11-14T17:22:28.520Z,9.10
2022-11-14T17:24:55.240Z,9.00
2022-11-14T17:29:51.596Z,8.80
2022-11-14T17:37:12.628Z,8.80
2022-11-14T17:39:39.337Z,8.80
2022-11-14T17:42:07.338Z,8.80
2022-11-14T17:44:34.047Z,8.70
2022-11-14T17:49:27.967Z,8.80
2022-11-14T17:51:54.778Z,8.80
2022-11-14T17:56:53.683Z,8.80
2022-11-14T17:59:21.851Z,8.70
2022-11-14T18:01:48.747Z,8.70
2022-11-14T18:04:15.529Z,8.60
2022-11-14T18:06:42.277Z,8.70
2022-11-14T18:11:41.334Z,8.80
2022-11-14T18:14:08.213Z,8.90
2022-11-14T18:16:57.567Z,8.80
2022-11-14T18:19:21.731Z,8.80
2022-11-14T18:24:22.770Z,8.70
2022-11-14T18:26:49.781Z,8.70
2022-11-14T18:31:44.629Z,8.60
2022-11-14T18:34:11.387Z,8.70
2022-11-14T18:36:38.088Z,8.70
2022-11-14T18:39:04.853Z,8.70
2022-11-14T18:41:31.662Z,8.70
2022-11-14T18:46:26.599Z,8.70
2022-11-14T18:48:55.518Z,8.70
2022-11-14T18:51:25.010Z,8.70
2022-11-14T18:53:52.231Z,8.80
2022-11-14T18:56:20.448Z,8.80
2022-11-14T18:58:47.530Z,8.80
2022-11-14T19:01:14.246Z,8.80
2022-11-14T19:03:41.570Z,8.80
2022-11-14T19:06:11.021Z,8.90
2022-11-14T19:08:38.129Z,9.00
2022-11-14T19:11:07.182Z,9.00
2022-11-14T19:13:34.456Z,9.00
2022-11-14T19:16:03.144Z,9.10
2022-11-14T19:18:31.368Z,9.00
2022-11-14T19:21:03.053Z,8.90
2022-11-14T19:23:30.369Z,9.00
2022-11-14T19:26:01.337Z,9.10
2022-11-14T19:28:29.509Z,9.10
2022-11-14T19:31:03.917Z,9.10
2022-11-14T19:33:31.858Z,9.20
2022-11-14T19:36:04.133Z,9.20
2022-11-14T19:38:31.016Z,9.10
2022-11-14T19:41:02.120Z,9.10
2022-11-14T19:43:31.475Z,9.20
2022-11-14T19:46:05.103Z,9.20
2022-11-14T19:48:32.730Z,9.20
2022-11-14T19:51:12.791Z,9.30
2022-11-14T19:53:40.770Z,9.40
2022-11-14T19:56:09.982Z,9.40
2022-11-14T19:58:38.172Z,9.40
2022-11-14T20:01:09.638Z,9.40
2022-11-14T20:03:37.110Z,9.50
2022-11-14T20:06:12.432Z,9.50
2022-11-14T20:08:39.267Z,9.60
2022-11-14T20:11:06.269Z,9.60
2022-11-14T20:13:38.872Z,9.60
2022-11-14T20:16:35.467Z,9.50
2022-11-14T20:19:02.555Z,9.70
2022-11-14T20:21:32.170Z,9.80
2022-11-14T20:23:59.390Z,9.70
2022-11-14T20:26:26.686Z,9.70
2022-11-14T20:28:54.705Z,9.70
2022-11-14T20:31:24.623Z,9.80
2022-11-14T20:33:52.955Z,9.80
2022-11-14T20:36:23.955Z,9.80
2022-11-14T20:38:52.025Z,9.90
2022-11-14T20:41:19.558Z,9.80
2022-11-14T20:43:46.340Z,9.90
2022-11-14T20:46:18.487Z,10.00
2022-11-14T20:48:46.683Z,9.90
2022-11-14T20:51:19.361Z,10.00
2022-11-14T20:53:46.825Z,10.00
2022-11-14T20:56:14.685Z,9.80
2022-11-14T20:58:42.811Z,9.70
2022-11-14T21:03:37.670Z,9.70
2022-11-14T21:06:06.974Z,9.70
2022-11-14T21:08:37.393Z,9.70
2022-11-14T21:11:06.598Z,9.70
2022-11-14T21:13:56.817Z,9.80
2022-11-14T21:16:31.973Z,9.80
2022-11-14T21:18:59.487Z,10.00
2022-11-14T21:21:33.903Z,10.10
2022-11-14T21:24:00.722Z,10.20
2022-11-14T21:26:36.816Z,10.20
2022-11-14T21:29:06.605Z,10.40
2022-11-14T21:31:34.977Z,10.40
2022-11-14T21:34:04.852Z,10.30
2022-11-14T21:36:47.534Z,10.20
2022-11-14T21:39:16.296Z,10.30
2022-11-14T21:41:44.584Z,10.30
2022-11-14T21:44:16.616Z,10.20
2022-11-14T21:46:46.207Z,10.10
2022-11-14T21:49:13.172Z,10.10
2022-11-14T21:54:07.453Z,10.00
2022-11-14T21:56:35.909Z,9.80
2022-11-14T21:59:13.837Z,9.90
2022-11-14T22:02:08.087Z,9.90
2022-11-14T22:04:35.959Z,9.50
2022-11-14T22:07:05.371Z,9.50
2022-11-14T22:09:32.556Z,9.50
2022-11-14T22:12:00.077Z,9.60
2022-11-14T22:14:27.407Z,9.60
2022-11-14T22:16:54.166Z,9.60
2022-11-14T22:21:48.475Z,9.40
2022-11-14T22:29:09.768Z,9.00
2022-11-14T22:31:37.893Z,8.90
2022-11-14T22:34:05.381Z,9.00
2022-11-14T22:36:33.020Z,9.00
2022-11-14T22:38:59.795Z,8.90
2022-11-14T22:41:32.290Z,9.00
2022-11-14T22:44:00.129Z,9.30
2022-11-14T22:46:29.936Z,9.30
2022-11-14T22:48:58.135Z,9.30
2022-11-14T22:51:27.251Z,9.10
2022-11-14T22:53:57.164Z,9.00
2022-11-14T22:56:26.778Z,9.00
2022-11-14T22:58:53.568Z,9.00
2022-11-14T23:01:28.906Z,8.90
2022-11-14T23:03:58.290Z,9.10
2022-11-14T23:06:26.191Z,9.10
2022-11-14T23:08:53.378Z,9.10
2022-11-14T23:11:23.184Z,9.00
2022-11-14T23:13:52.468Z,9.00
2022-11-14T23:16:24.914Z,9.00
2022-11-14T23:18:54.771Z,9.10
2022-11-14T23:21:24.258Z,9.20
2022-11-14T23:23:59.498Z,9.30
2022-11-14T23:26:27.323Z,9.30
2022-11-14T23:28:54.293Z,9.30
2022-11-14T23:31:23.132Z,9.30
2022-11-14T23:33:52.382Z,9.30
2022-11-14T23:36:19.721Z,9.30
2022-11-14T23:38:46.621Z,9.40
2022-11-14T23:41:21.880Z,9.30
2022-11-14T23:43:48.919Z,9.20
2022-11-14T23:46:15.743Z,9.20
2022-11-14T23:48:42.668Z,9.40
2022-11-14T23:51:09.912Z,9.40
2022-11-14T23:53:36.748Z,9.50
2022-11-14T23:56:03.885Z,9.60
2022-11-14T23:58:30.821Z,9.60
